Time;durP1;ratioP1;P1;durP2;ratioP2;P2;SDS_P1;SDS_P2;PMS_P1;PMS_P2;Temp;Humidity;BMP_temperature;BMP_pressure;BME280_temperature;BME280_humidity;BME280_pressure;Samples;Min_cycle;Max_cycle;Signal;HPM_P1;HPM_P2
2023/03/31 00:04:03;;;;;;;7.30;6.60;;;;;;;9.68;77.98;98815.41;218848;1254;139543;-72
2023/03/31 00:09:11;;;;;;;10.00;7.40;;;;;;;9.65;77.91;98813.36;220930;1256;140339;-73
2023/03/31 00:14:18;;;;;;;10.20;7.50;;;;;;;9.63;78.09;98815.89;220798;1254;141894;-73
2023/03/31 00:19:23;;;;;;;8.50;5.60;;;;;;;9.60;78.12;98822.56;219813;1254;140020;-72
2023/03/31 00:24:32;;;;;;;8.80;5.70;;;;;;;9.61;78.26;98826.52;220182;1254;140250;-73
2023/03/31 00:29:40;;;;;;;7.90;5.90;;;;;;;9.62;78.48;98824.92;218608;1254;139888;-73
2023/03/31 00:34:45;;;;;;;6.60;6.00;;;;;;;9.62;78.27;98821.73;219658;1256;140812;-73
2023/03/31 00:39:49;;;;;;;8.90;6.90;;;;;;;9.58;78.52;98811.37;218187;1257;139711;-71
2023/03/31 00:45:13;;;;;;;7.90;6.60;;;;;;;9.52;78.80;98806.98;218735;1257;140841;-72
2023/03/31 00:50:27;;;;;;;10.20;7.50;;;;;;;9.47;78.44;98806.63;218185;1256;139667;-70
2023/03/31 00:55:39;;;;;;;8.70;6.80;;;;;;;9.36;78.73;98807.57;219412;1252;140302;-70
2023/03/31 01:00:43;;;;;;;10.00;9.00;;;;;;;9.26;78.76;98805.96;218414;1256;139719;-69
2023/03/31 01:06:05;;;;;;;6.60;5.70;;;;;;;9.17;79.06;98802.61;218617;1254;140698;-70
2023/03/31 01:11:13;;;;;;;9.60;7.30;;;;;;;9.08;79.13;98800.86;218193;1256;139880;-69
2023/03/31 01:16:17;;;;;;;8.00;5.80;;;;;;;8.99;79.25;98801.65;218419;1256;139912;-68
2023/03/31 01:22:07;;;;;;;10.00;6.40;;;;;;;8.91;79.53;98807.17;218792;1254;139844;-70
2023/03/31 01:27:33;;;;;;;8.90;6.50;;;;;;;8.80;79.66;98808.92;218657;1254;140626;-70
2023/03/31 01:32:55;;;;;;;;;;;;;;;8.73;79.85;98805.30;218238;1254;139425;-71
2023/03/31 01:38:28;;;;;;;9.50;7.10;;;;;;;8.69;80.25;98805.29;219041;1256;125980;-70
2023/03/31 01:43:43;;;;;;;8.30;6.90;;;;;;;8.69;80.24;98807.79;218972;1257;139727;-70
2023/03/31 01:48:57;;;;;;;7.30;6.50;;;;;;;8.67;80.47;98806.23;218357;1254;139429;-71
2023/03/31 01:54:16;;;;;;;9.90;6.90;;;;;;;8.67;80.45;98797.04;219316;1255;141755;-72
2023/03/31 01:59:34;;;;;;;13.40;7.20;;;;;;;8.65;80.81;98801.89;219530;1254;139902;-70
2023/03/31 02:04:48;;;;;;;6.10;5.60;;;;;;;8.67;80.68;98807.97;219478;1254;140736;-71
2023/03/31 02:09:58;;;;;;;8.70;6.50;;;;;;;8.67;80.80;98806.39;219736;1253;139850;-71
2023/03/31 02:15:08;;;;;;;12.10;7.90;;;;;;;8.68;80.90;98802.09;221117;1253;140373;-71
2023/03/31 02:20:15;;;;;;;10.50;7.50;;;;;;;8.69;81.23;98799.98;220434;1254;141271;-69
2023/03/31 02:25:24;;;;;;;13.00;8.00;;;;;;;8.73;81.26;98793.03;221100;1254;140348;-70
2023/03/31 02:30:46;;;;;;;7.90;7.00;;;;;;;8.76;81.08;98787.92;221146;1254;141387;-69
2023/03/31 02:35:51;;;;;;;9.20;8.20;;;;;;;8.82;81.38;98792.51;219167;1253;139734;-69
2023/03/31 02:40:57;;;;;;;11.80;7.10;;;;;;;8.85;81.07;98779.00;219405;1254;139400;-68
2023/03/31 02:46:01;;;;;;;10.30;7.70;;;;;;;8.86;81.14;98779.23;219275;1254;140392;-69
2023/03/31 02:51:20;;;;;;;11.70;8.40;;;;;;;8.84;80.90;98786.17;219514;1254;140372;-73
2023/03/31 02:56:33;;;;;;;8.00;5.60;;;;;;;8.84;81.19;98790.73;218430;1254;143469;-80
2023/03/31 03:01:45;;;;;;;10.70;6.60;;;;;;;8.80;81.30;98785.38;218452;1254;139998;-74
2023/03/31 03:07:00;;;;;;;12.20;8.00;;;;;;;8.79;81.42;98782.42;218239;1254;140659;-73
2023/03/31 03:12:16;;;;;;;9.10;7.20;;;;;;;8.74;81.38;98779.33;218101;1257;140533;-75
2023/03/31 03:17:29;;;;;;;8.00;6.70;;;;;;;8.70;81.42;98783.69;218260;1255;140250;-74
2023/03/31 03:22:39;;;;;;;9.10;6.60;;;;;;;8.65;81.36;98788.23;217983;1254;140518;-71
2023/03/31 03:27:43;;;;;;;10.80;6.10;;;;;;;8.61;81.67;98784.98;218765;1253;141265;-72
2023/03/31 03:32:47;;;;;;;19.40;9.40;;;;;;;8.59;81.46;98784.10;218046;1254;139886;-72
2023/03/31 03:37:51;;;;;;;11.70;7.10;;;;;;;8.55;81.18;98788.25;218526;1254;140632;-73
2023/03/31 03:42:55;;;;;;;6.60;6.10;;;;;;;8.46;81.25;98792.82;218419;1253;140801;-72
2023/03/31 03:48:00;;;;;;;8.70;6.30;;;;;;;8.33;81.09;98797.33;218346;1254;140606;-74
2023/03/31 03:53:04;;;;;;;10.90;7.30;;;;;;;8.18;81.08;98795.87;218457;1253;141772;-69
2023/03/31 03:58:10;;;;;;;8.80;6.60;;;;;;;8.08;81.36;98787.53;218859;1252;139610;-72
2023/03/31 04:03:15;;;;;;;11.30;7.30;;;;;;;8.01;81.27;98786.25;220221;1253;140257;-69
2023/03/31 04:08:20;;;;;;;9.90;6.50;;;;;;;7.96;81.37;98783.73;219737;1253;142825;-68
2023/03/31 04:13:24;;;;;;;8.30;6.10;;;;;;;7.91;81.32;98785.25;219120;1253;139720;-68
2023/03/31 04:18:28;;;;;;;8.20;5.90;;;;;;;7.84;81.24;98777.01;218582;1254;140171;-68
2023/03/31 04:23:45;;;;;;;7.40;6.50;;;;;;;7.80;81.69;98778.52;220086;1253;140219;-68
2023/03/31 04:28:51;;;;;;;12.90;7.30;;;;;;;7.77;81.83;98774.39;219620;1253;139667;-67
2023/03/31 04:34:01;;;;;;;7.20;5.90;;;;;;;7.76;81.90;98767.27;219793;1254;140459;-70
2023/03/31 04:39:09;;;;;;;6.80;5.30;;;;;;;7.79;81.81;98762.06;220088;1253;140376;-67
2023/03/31 04:44:15;;;;;;;8.40;5.30;;;;;;;7.76;82.02;98754.16;219085;1251;139573;-72
2023/03/31 04:49:21;;;;;;;12.10;7.70;;;;;;;7.80;82.35;98753.54;219349;1253;139990;-69
2023/03/31 04:54:25;;;;;;;7.30;5.80;;;;;;;7.86;82.25;98748.11;218835;1251;140682;-68
2023/03/31 04:59:30;;;;;;;7.10;4.70;;;;;;;7.88;82.29;98749.21;218661;1253;139984;-69
2023/03/31 05:04:36;;;;;;;6.20;4.60;;;;;;;7.90;82.37;98743.48;219580;1254;140403;-68
2023/03/31 05:09:40;;;;;;;4.40;4.00;;;;;;;7.93;82.28;98745.00;218769;1253;139263;-68
2023/03/31 05:14:45;;;;;;;4.60;4.10;;;;;;;7.98;82.55;98742.77;218475;1254;141632;-70
2023/03/31 05:19:50;;;;;;;6.80;4.40;;;;;;;8.04;82.59;98737.20;218086;1256;140760;-67
2023/03/31 05:24:54;;;;;;;5.50;4.50;;;;;;;8.07;82.55;98733.16;218077;1257;139868;-68
2023/03/31 05:30:03;;;;;;;6.30;4.30;;;;;;;8.12;82.52;98728.71;218777;1257;139982;-70
2023/03/31 05:35:08;;;;;;;14.10;5.90;;;;;;;8.13;82.73;98732.40;218888;1254;139783;-67
2023/03/31 05:40:13;;;;;;;6.80;5.30;;;;;;;8.18;82.53;98729.19;218660;1254;140753;-68
2023/03/31 05:45:17;;;;;;;8.20;4.90;;;;;;;8.22;82.60;98726.05;219110;1254;139754;-69
2023/03/31 05:50:22;;;;;;;9.70;5.60;;;;;;;8.23;82.64;98724.97;219041;1254;140639;-68
2023/03/31 05:55:28;;;;;;;8.30;4.80;;;;;;;8.27;82.59;98716.67;217738;1257;141210;-71
2023/03/31 06:00:36;;;;;;;8.50;4.50;;;;;;;8.36;82.69;98712.78;219234;1254;140409;-68
2023/03/31 06:05:46;;;;;;;6.70;4.40;;;;;;;8.46;82.51;98703.47;218866;1254;139667;-69
2023/03/31 06:11:20;;;;;;;6.20;4.60;;;;;;;8.55;82.38;98699.66;217928;1257;140617;-67
2023/03/31 06:16:25;;;;;;;5.90;4.10;;;;;;;8.61;82.28;98710.88;220729;1253;141187;-70
2023/03/31 06:21:32;;;;;;;;;;;;;;;8.69;82.28;98711.20;219141;1252;139907;-68
2023/03/31 06:26:38;;;;;;;7.00;4.40;;;;;;;8.74;81.91;98713.12;220608;1253;126470;-70
2023/03/31 06:31:42;;;;;;;5.50;4.80;;;;;;;8.81;82.00;98709.60;220210;1253;139771;-72
2023/03/31 06:36:47;;;;;;;6.50;4.10;;;;;;;8.88;81.53;98704.06;219150;1253;139520;-70
2023/03/31 06:41:51;;;;;;;5.40;4.00;;;;;;;8.97;81.72;98700.58;218249;1256;140014;-68
2023/03/31 06:46:55;;;;;;;6.30;4.30;;;;;;;9.13;81.65;98705.00;218963;1251;140863;-67
2023/03/31 06:52:00;;;;;;;8.40;4.50;;;;;;;9.23;81.43;98700.50;218232;1251;139910;-71
2023/03/31 06:57:04;;;;;;;7.70;5.70;;;;;;;9.32;81.33;98705.62;218899;1253;139663;-74
2023/03/31 07:02:09;;;;;;;7.50;5.90;;;;;;;9.42;81.09;98704.43;219139;1253;139999;-68
2023/03/31 07:07:14;;;;;;;8.40;5.80;;;;;;;9.54;81.29;98701.70;218606;1253;139818;-68
2023/03/31 07:12:19;;;;;;;13.50;4.80;;;;;;;9.76;81.21;98693.98;219297;1251;140787;-72
2023/03/31 07:17:24;;;;;;;9.10;5.70;;;;;;;10.00;80.65;98691.54;218264;1257;141198;-69
2023/03/31 07:22:28;;;;;;;6.00;4.60;;;;;;;10.22;80.51;98699.85;218774;1254;139693;-69
2023/03/31 07:27:33;;;;;;;6.00;4.40;;;;;;;10.40;80.23;98692.54;218624;1253;140807;-70
2023/03/31 07:32:39;;;;;;;6.90;4.60;;;;;;;10.54;79.77;98686.42;219011;1254;140980;-67
2023/03/31 07:37:46;;;;;;;7.90;4.20;;;;;;;10.68;79.69;98681.96;218303;1254;623081;-68
2023/03/31 07:42:51;;;;;;;5.60;4.30;;;;;;;10.80;79.24;98678.00;219674;1251;142372;-68
2023/03/31 07:47:55;;;;;;;6.80;3.80;;;;;;;10.94;78.91;98671.02;218475;1253;210153;-69
2023/03/31 07:53:01;;;;;;;10.10;5.40;;;;;;;11.12;78.64;98657.86;218820;1253;140635;-69
2023/03/31 07:58:05;;;;;;;9.80;4.60;;;;;;;11.42;78.52;98659.77;220388;1254;142005;-68
2023/03/31 08:03:11;;;;;;;4.30;3.90;;;;;;;11.66;77.85;98659.50;221074;1253;140545;-71
2023/03/31 08:08:17;;;;;;;9.50;5.30;;;;;;;11.84;77.48;98654.03;220051;1253;141619;-71
2023/03/31 08:13:20;;;;;;;5.10;4.00;;;;;;;12.00;77.03;98647.73;218845;1254;140834;-73
2023/03/31 08:18:25;;;;;;;7.10;5.50;;;;;;;12.13;76.44;98639.50;220836;1253;140539;-70
2023/03/31 08:23:29;;;;;;;5.50;5.00;;;;;;;12.41;76.51;98634.86;220734;1253;139946;-73
2023/03/31 08:28:33;;;;;;;9.00;5.70;;;;;;;12.72;76.05;98633.12;218520;1253;142494;-69
2023/03/31 08:33:37;;;;;;;8.50;5.40;;;;;;;12.88;75.53;98631.48;220760;1251;245908;-69
2023/03/31 08:38:44;;;;;;;4.90;4.10;;;;;;;13.04;74.92;98628.13;218582;1256;140227;-69
2023/03/31 08:43:49;;;;;;;5.80;4.60;;;;;;;13.30;74.58;98622.83;219699;1253;141873;-71
2023/03/31 08:48:56;;;;;;;9.00;5.20;;;;;;;13.51;74.05;98619.17;219279;1254;139680;-67
2023/03/31 08:54:07;;;;;;;;;;;;;;;13.69;73.68;98614.22;218987;1251;140736;-75
2023/03/31 08:59:32;;;;;;;6.10;4.90;;;;;;;13.79;73.53;98606.50;219765;1253;127025;-78
2023/03/31 09:04:38;;;;;;;7.10;4.40;;;;;;;13.93;72.94;98604.60;218109;1251;140855;-72
2023/03/31 09:09:51;;;;;;;5.20;3.60;;;;;;;14.06;72.59;98610.13;218252;1254;139622;-75
2023/03/31 09:15:04;;;;;;;8.80;4.00;;;;;;;14.05;72.00;98601.84;218316;1253;140316;-72
2023/03/31 09:20:32;;;;;;;5.00;4.40;;;;;;;14.01;71.44;98599.91;218020;1253;140451;-81
2023/03/31 09:25:40;;;;;;;4.70;4.20;;;;;;;14.09;71.24;98592.19;218587;1253;140749;-83
2023/03/31 09:30:48;;;;;;;;;;;;;;;14.16;70.90;98584.83;219105;1255;140106;-70
2023/03/31 09:35:55;;;;;;;6.00;4.40;;;;;;;14.19;70.71;98581.69;218806;1251;128534;-73
2023/03/31 09:41:04;;;;;;;6.30;4.30;;;;;;;14.20;70.41;98574.02;219552;1254;140614;-79
2023/03/31 09:46:28;;;;;;;10.30;4.50;;;;;;;14.27;70.28;98568.52;219183;1253;140423;-71
2023/03/31 09:51:37;;;;;;;8.00;3.90;;;;;;;14.39;70.24;98559.14;218109;1253;140073;-73
2023/03/31 09:56:47;;;;;;;8.90;4.90;;;;;;;14.74;70.12;98543.03;218179;1255;140443;-71
2023/03/31 10:01:57;;;;;;;6.70;4.40;;;;;;;15.15;69.91;98536.44;218920;1253;139706;-71
2023/03/31 10:07:05;;;;;;;6.90;4.10;;;;;;;15.37;69.14;98524.41;220927;1251;140772;-75
2023/03/31 10:12:19;;;;;;;7.20;4.50;;;;;;;15.61;69.00;98517.88;219030;1254;139255;-72
2023/03/31 10:17:27;;;;;;;6.80;4.20;;;;;;;15.85;68.47;98503.77;219527;1254;139673;-72
2023/03/31 10:22:31;;;;;;;7.10;4.70;;;;;;;15.96;67.52;98500.70;219158;1253;140331;-74
2023/03/31 10:27:41;;;;;;;5.30;3.50;;;;;;;16.22;67.39;98499.52;219987;1254;139741;-71
2023/03/31 10:32:48;;;;;;;5.40;4.50;;;;;;;16.59;67.18;98489.80;219924;1254;139986;-74
2023/03/31 10:38:02;;;;;;;4.80;3.70;;;;;;;16.83;66.54;98486.77;219050;1254;139936;-74
2023/03/31 10:43:18;;;;;;;4.70;4.30;;;;;;;16.92;65.79;98482.02;220126;1253;140447;-71
2023/03/31 10:48:28;;;;;;;4.30;3.90;;;;;;;17.11;65.78;98478.37;219406;1254;139530;-72
2023/03/31 10:53:47;;;;;;;4.30;3.50;;;;;;;17.23;65.11;98476.09;219071;1255;139236;-73
2023/03/31 10:59:26;;;;;;;6.90;3.40;;;;;;;17.17;64.31;98470.05;218773;1254;140467;-72
2023/03/31 11:04:42;;;;;;;3.90;3.40;;;;;;;17.02;63.81;98462.98;218168;1257;139730;-75
2023/03/31 11:10:07;;;;;;;9.10;4.60;;;;;;;16.92;63.84;98450.96;218518;1253;139813;-73
2023/03/31 11:15:21;;;;;;;6.10;3.70;;;;;;;16.93;63.48;98444.77;219340;1254;139449;-73
2023/03/31 11:20:30;;;;;;;4.10;3.60;;;;;;;16.95;63.29;98436.09;218229;1257;140377;-73
2023/03/31 11:25:43;;;;;;;3.60;3.30;;;;;;;16.94;63.06;98430.52;218735;1255;139551;-73
2023/03/31 11:31:11;;;;;;;4.10;3.50;;;;;;;16.92;62.86;98427.27;219146;1256;139573;-72
2023/03/31 11:36:56;;;;;;;8.60;2.60;;;;;;;16.70;62.40;98417.38;219321;1257;138864;-72
2023/03/31 11:42:26;;;;;;;4.10;2.40;;;;;;;16.65;62.68;98403.68;217976;1257;139892;-73
2023/03/31 11:47:36;;;;;;;6.60;3.00;;;;;;;16.49;62.10;98395.65;219243;1254;139631;-72
2023/03/31 11:52:52;;;;;;;2.90;2.30;;;;;;;16.46;62.41;98387.27;219135;1254;139409;-72
2023/03/31 11:57:57;;;;;;;9.80;3.90;;;;;;;16.43;61.85;98375.88;219771;1251;139222;-72
2023/03/31 12:03:16;;;;;;;6.10;3.70;;;;;;;16.41;62.09;98371.09;218352;1256;140009;-72
2023/03/31 12:08:32;;;;;;;12.00;3.30;;;;;;;16.48;61.96;98365.13;219950;1254;139690;-71
2023/03/31 12:13:56;;;;;;;3.00;2.60;;;;;;;16.39;61.79;98358.45;221131;1254;140982;-72
2023/03/31 12:19:40;;;;;;;5.30;2.90;;;;;;;16.16;61.63;98348.55;218425;1253;139451;-75
2023/03/31 12:24:45;;;;;;;8.00;3.60;;;;;;;15.90;62.01;98341.96;218099;1256;139093;-72
2023/03/31 12:30:07;;;;;;;3.60;2.80;;;;;;;15.72;62.30;98341.60;219104;1253;139601;-71
2023/03/31 12:35:56;;;;;;;7.30;3.10;;;;;;;15.66;62.73;98331.14;219186;1253;139114;-72
2023/03/31 12:41:14;;;;;;;5.00;2.90;;;;;;;15.54;62.65;98325.74;219171;1255;139902;-72
2023/03/31 12:46:28;;;;;;;3.90;3.10;;;;;;;15.49;62.89;98313.02;218640;1251;140114;-72
2023/03/31 12:51:52;;;;;;;4.10;3.20;;;;;;;15.62;63.22;98303.36;218662;1256;140037;-72
2023/03/31 12:57:00;;;;;;;5.20;2.40;;;;;;;15.81;62.97;98288.46;218585;1254;138892;-76
2023/03/31 13:02:15;;;;;;;4.30;2.50;;;;;;;15.89;62.52;98279.00;218543;1253;139247;-75
2023/03/31 13:07:27;;;;;;;3.40;2.00;;;;;;;16.09;62.49;98275.02;218822;1254;139228;-74
2023/03/31 13:12:34;;;;;;;1.60;1.50;;;;;;;16.40;62.12;98266.50;218551;1254;140785;-73
2023/03/31 13:17:57;;;;;;;2.10;1.40;;;;;;;16.64;61.86;98259.23;219229;1254;138726;-73
2023/03/31 13:23:05;;;;;;;3.30;1.80;;;;;;;16.85;61.31;98246.59;218522;1255;151016;-73
2023/03/31 13:28:20;;;;;;;3.80;2.40;;;;;;;17.04;60.38;98228.83;218774;1251;139377;-73
2023/03/31 13:33:50;;;;;;;2.10;1.80;;;;;;;17.16;60.02;98218.45;219132;1251;139072;-74
2023/03/31 13:39:12;;;;;;;4.30;1.70;;;;;;;17.05;59.29;98215.46;219469;1251;140905;-72
2023/03/31 13:44:42;;;;;;;3.90;1.50;;;;;;;16.95;59.09;98206.70;219691;1251;139083;-73
2023/03/31 13:49:55;;;;;;;5.00;2.10;;;;;;;16.99;58.90;98189.67;220939;1253;140911;-73
2023/03/31 13:55:35;;;;;;;6.60;2.60;;;;;;;17.00;58.42;98173.71;219622;1251;139872;-74
2023/03/31 14:01:15;;;;;;;2.40;2.10;;;;;;;16.91;58.16;98168.52;219926;1253;140493;-74
2023/03/31 14:06:29;;;;;;;3.00;2.30;;;;;;;16.88;57.98;98165.07;219459;1251;139095;-71
2023/03/31 14:11:34;;;;;;;3.00;2.50;;;;;;;16.82;57.98;98154.39;219990;1251;139256;-75
2023/03/31 14:16:48;;;;;;;5.30;2.80;;;;;;;16.64;58.14;98159.23;218454;1253;139061;-73
2023/03/31 14:22:23;;;;;;;1.80;1.50;;;;;;;16.09;58.75;98204.02;218974;1251;139851;-72
2023/03/31 14:27:52;;;;;;;6.50;1.60;;;;;;;15.03;60.21;98178.52;218932;1251;139913;-73
2023/03/31 14:33:13;;;;;;;1.20;1.00;;;;;;;14.47;61.95;98147.12;218462;1255;140256;-71
2023/03/31 14:38:21;;;;;;;4.90;1.70;;;;;;;14.16;63.59;98148.39;219283;1254;219015;-71
2023/03/31 14:43:34;;;;;;;5.50;1.30;;;;;;;13.86;64.97;98148.98;218498;1254;139268;-71
2023/03/31 14:48:47;;;;;;;11.70;3.30;;;;;;;13.91;66.39;98147.23;219032;1254;140315;-71
2023/03/31 14:54:01;;;;;;;5.40;2.60;;;;;;;13.93;67.10;98137.78;218478;1256;140941;-71
2023/03/31 14:59:07;;;;;;;3.20;1.90;;;;;;;13.90;67.47;98123.09;219176;1254;140451;-70
2023/03/31 15:04:15;;;;;;;3.20;2.10;;;;;;;13.91;68.11;98113.65;218435;1254;140784;-71
2023/03/31 15:09:32;;;;;;;6.20;3.10;;;;;;;13.96;68.71;98105.36;218494;1251;140578;-73
2023/03/31 15:14:50;;;;;;;6.60;2.80;;;;;;;14.04;69.38;98098.52;218438;1256;140227;-73
2023/03/31 15:19:58;;;;;;;2.00;1.80;;;;;;;14.16;69.46;98092.34;219659;1254;140693;-71
2023/03/31 15:25:03;;;;;;;8.40;2.60;;;;;;;14.11;69.50;98085.30;218941;1251;140104;-69
2023/03/31 15:30:16;;;;;;;1.80;1.70;;;;;;;14.09;69.97;98078.64;218875;1256;140244;-72
2023/03/31 15:35:39;;;;;;;9.00;3.80;;;;;;;13.89;70.22;98075.71;220335;1253;139667;-71
2023/03/31 15:40:52;;;;;;;3.60;2.70;;;;;;;13.82;71.26;98076.36;220204;1253;139854;-70
2023/03/31 15:46:01;;;;;;;2.90;2.40;;;;;;;13.78;71.38;98090.26;220715;1251;139807;-70
2023/03/31 15:51:36;;;;;;;2.00;1.90;;;;;;;13.66;70.99;98086.52;219791;1252;140547;-71
2023/03/31 15:56:44;;;;;;;6.10;2.20;;;;;;;13.36;70.59;98066.73;220572;1254;140507;-70
2023/03/31 16:01:51;;;;;;;5.00;2.80;;;;;;;13.15;70.95;98048.65;219564;1256;140143;-70
2023/03/31 16:07:13;;;;;;;3.10;2.00;;;;;;;13.02;71.33;98043.54;218444;1252;140032;-71
2023/03/31 16:12:26;;;;;;;6.70;2.80;;;;;;;12.98;71.67;98038.14;218561;1254;140853;-72
2023/03/31 16:17:46;;;;;;;7.40;3.70;;;;;;;12.91;71.93;98032.38;220107;1254;140304;-71
2023/03/31 16:22:54;;;;;;;6.70;2.30;;;;;;;12.83;72.15;98031.16;218777;1254;140155;-72
2023/03/31 16:28:03;;;;;;;2.10;1.90;;;;;;;12.79;72.49;98027.02;219890;1253;139852;-73
2023/03/31 16:33:09;;;;;;;3.40;2.80;;;;;;;12.68;72.49;98021.92;218781;1254;139777;-76
2023/03/31 16:38:17;;;;;;;14.50;5.10;;;;;;;12.60;72.64;98021.49;217999;1257;139973;-71
2023/03/31 16:43:23;;;;;;;9.90;3.90;;;;;;;12.53;72.71;98017.00;218340;1252;140646;-71
2023/03/31 16:48:32;;;;;;;4.10;2.50;;;;;;;12.43;72.90;98020.84;218657;1255;139875;-69
2023/03/31 16:53:37;;;;;;;6.90;4.30;;;;;;;12.31;72.86;98032.15;219118;1254;140642;-70
2023/03/31 16:58:42;;;;;;;9.40;4.10;;;;;;;12.21;73.32;98031.98;219631;1256;140069;-70
2023/03/31 17:03:47;;;;;;;5.90;3.50;;;;;;;12.13;73.37;98029.56;218383;1251;140755;-69
2023/03/31 17:08:51;;;;;;;13.10;4.80;;;;;;;12.07;73.84;98026.91;218333;1256;140084;-71
2023/03/31 17:13:56;;;;;;;4.00;3.60;;;;;;;12.04;73.96;98030.25;219084;1254;140751;-69
2023/03/31 17:19:01;;;;;;;7.50;2.90;;;;;;;11.98;74.14;98029.52;220126;1255;139544;-71
2023/03/31 17:24:07;;;;;;;6.10;3.50;;;;;;;11.84;74.37;98025.31;219926;1256;139481;-71
2023/03/31 17:29:15;;;;;;;5.50;2.50;;;;;;;11.76;74.67;98026.88;218540;1254;140007;-72
2023/03/31 17:34:21;;;;;;;3.70;2.80;;;;;;;11.66;74.53;98019.16;218923;1251;140348;-72
2023/03/31 17:39:26;;;;;;;7.10;3.80;;;;;;;11.58;74.80;98017.88;220339;1252;141446;-71
2023/03/31 17:44:30;;;;;;;4.40;3.30;;;;;;;11.48;75.08;98015.57;218228;1256;140207;-72
2023/03/31 17:49:36;;;;;;;218.30;92.80;;;;;;;11.42;75.38;98015.84;218985;1257;140151;-71
2023/03/31 17:54:43;;;;;;;22.30;16.70;;;;;;;11.35;75.50;98022.84;220981;1251;141265;-72
2023/03/31 17:59:53;;;;;;;11.60;9.10;;;;;;;11.29;75.95;98028.84;220762;1256;139774;-72
2023/03/31 18:04:59;;;;;;;11.40;5.90;;;;;;;11.25;76.25;98033.24;218582;1254;141213;-71
2023/03/31 18:10:05;;;;;;;8.80;5.10;;;;;;;11.21;76.48;98033.38;219559;1256;140844;-71
2023/03/31 18:15:10;;;;;;;6.00;3.30;;;;;;;11.19;76.68;98032.17;218400;1257;140670;-73
2023/03/31 18:20:17;;;;;;;9.30;4.00;;;;;;;11.16;76.93;98034.27;219043;1256;139890;-72
2023/03/31 18:25:21;;;;;;;4.90;3.60;;;;;;;11.14;77.24;98033.54;218474;1256;140027;-71
2023/03/31 18:30:27;;;;;;;4.90;3.90;;;;;;;11.11;77.37;98032.75;218890;1254;141621;-70
2023/03/31 18:35:32;;;;;;;6.40;3.10;;;;;;;11.11;77.66;98033.98;218485;1256;140040;-72
2023/03/31 18:40:36;;;;;;;3.90;3.10;;;;;;;10.99;77.74;98027.33;218342;1255;140399;-71
2023/03/31 18:45:41;;;;;;;7.50;4.80;;;;;;;10.90;78.01;98006.64;218201;1257;139956;-72
2023/03/31 18:50:45;;;;;;;5.80;4.20;;;;;;;10.87;78.52;97998.78;218357;1256;142496;-73
2023/03/31 18:55:55;;;;;;;4.80;3.90;;;;;;;10.83;78.61;98001.14;218927;1256;140158;-72
2023/03/31 19:01:00;;;;;;;9.20;3.90;;;;;;;10.80;79.01;97999.15;218526;1254;140078;-72
2023/03/31 19:06:11;;;;;;;7.20;4.60;;;;;;;10.80;79.39;98006.17;218485;1257;140291;-70
2023/03/31 19:11:16;;;;;;;10.90;5.40;;;;;;;10.79;79.31;98001.55;219180;1255;139545;-73
2023/03/31 19:16:24;;;;;;;4.90;4.10;;;;;;;10.78;79.56;98005.50;218741;1254;139519;-72
2023/03/31 19:21:35;;;;;;;9.90;4.80;;;;;;;10.76;79.56;98000.55;218609;1256;139993;-72
2023/03/31 19:26:45;;;;;;;6.80;5.50;;;;;;;10.68;79.84;97999.13;218474;1257;139959;-71
2023/03/31 19:31:50;;;;;;;4.30;3.40;;;;;;;10.64;79.94;97999.48;219232;1254;140166;-71
2023/03/31 19:36:56;;;;;;;6.80;4.80;;;;;;;10.57;80.01;97988.50;217987;1257;756447;-71
2023/03/31 19:42:01;;;;;;;12.00;6.80;;;;;;;10.48;80.26;97979.65;219369;1252;139789;-73
2023/03/31 19:47:07;;;;;;;7.80;5.00;;;;;;;10.39;80.36;97968.15;218589;1256;140691;-72
2023/03/31 19:52:12;;;;;;;10.20;5.40;;;;;;;10.34;80.68;97962.92;220633;1254;140667;-72
2023/03/31 19:57:18;;;;;;;7.90;6.00;;;;;;;10.31;80.81;97960.11;221037;1253;140551;-73
2023/03/31 20:02:23;;;;;;;14.10;5.90;;;;;;;10.29;80.92;97968.96;220383;1252;139667;-71
2023/03/31 20:07:28;;;;;;;10.40;6.70;;;;;;;10.33;81.35;97971.93;220043;1254;141468;-69
2023/03/31 20:12:34;;;;;;;12.00;7.60;;;;;;;10.33;81.11;97966.13;218672;1254;141751;-69
2023/03/31 20:17:38;;;;;;;9.20;6.00;;;;;;;10.22;81.37;97961.27;218262;1255;141641;-70
2023/03/31 20:22:43;;;;;;;14.30;9.10;;;;;;;10.13;81.50;97954.38;218271;1253;140288;-70
2023/03/31 20:27:47;;;;;;;14.30;7.60;;;;;;;10.08;81.86;97947.86;219005;1254;140991;-70
2023/03/31 20:32:51;;;;;;;8.30;7.50;;;;;;;10.07;82.08;97934.67;217860;1256;140806;-71
2023/03/31 20:37:55;;;;;;;11.30;8.30;;;;;;;10.07;82.16;97941.12;218439;1256;141591;-68
2023/03/31 20:43:00;;;;;;;9.90;8.70;;;;;;;10.10;82.23;97951.20;218199;1253;139907;-68
2023/03/31 20:48:06;;;;;;;8.60;7.70;;;;;;;10.12;82.55;97958.16;218438;1256;139798;-70
2023/03/31 20:53:11;;;;;;;11.30;8.10;;;;;;;10.12;82.44;97943.03;218402;1254;141568;-69
2023/03/31 20:58:16;;;;;;;10.30;8.30;;;;;;;10.09;82.62;97947.69;218731;1254;140031;-69
2023/03/31 21:03:21;;;;;;;10.60;8.50;;;;;;;10.07;82.70;97943.40;218656;1256;139866;-68
2023/03/31 21:08:26;;;;;;;11.70;9.10;;;;;;;10.08;82.88;97941.38;218151;1254;142919;-69
2023/03/31 21:13:31;;;;;;;16.90;11.40;;;;;;;10.05;83.05;97938.36;219004;1254;141488;-71
2023/03/31 21:18:36;;;;;;;14.00;10.80;;;;;;;10.04;83.09;97942.20;219388;1254;140632;-70
2023/03/31 21:23:41;;;;;;;12.00;10.70;;;;;;;10.03;83.20;97933.63;218266;1254;141167;-68
2023/03/31 21:28:45;;;;;;;17.60;12.40;;;;;;;10.01;83.16;97936.88;218679;1252;141005;-71
2023/03/31 21:33:51;;;;;;;16.90;11.30;;;;;;;9.99;83.26;97932.90;221176;1255;141916;-72
2023/03/31 21:38:57;;;;;;;13.50;10.00;;;;;;;9.96;83.26;97929.08;220350;1254;141114;-68
2023/03/31 21:44:03;;;;;;;22.10;14.70;;;;;;;9.93;83.34;97929.36;221056;1252;140620;-71
2023/03/31 21:49:09;;;;;;;13.70;10.10;;;;;;;9.94;83.22;97937.71;221096;1254;140356;-70
2023/03/31 21:54:14;;;;;;;13.90;8.70;;;;;;;9.92;83.05;97929.20;220920;1253;140681;-71
2023/03/31 21:59:19;;;;;;;15.00;10.30;;;;;;;9.90;83.20;97928.84;219726;1252;140091;-71
2023/03/31 22:04:23;;;;;;;14.00;10.00;;;;;;;9.89;83.11;97925.75;218480;1256;141498;-70
2023/03/31 22:09:29;;;;;;;12.50;9.90;;;;;;;9.86;82.93;97930.45;219377;1251;141127;-69
2023/03/31 22:14:36;;;;;;;14.60;9.80;;;;;;;9.75;82.73;97930.83;219122;1253;140337;-70
2023/03/31 22:19:41;;;;;;;12.70;10.20;;;;;;;9.69;82.95;97932.89;218276;1254;140564;-72
2023/03/31 22:24:47;;;;;;;14.50;9.90;;;;;;;9.69;83.50;97932.08;219807;1253;140787;-72
2023/03/31 22:29:51;;;;;;;14.00;10.80;;;;;;;9.70;83.55;97934.80;218290;1257;140203;-70
2023/03/31 22:35:00;;;;;;;13.30;8.90;;;;;;;9.73;83.57;97931.97;218250;1253;141407;-71
2023/03/31 22:40:06;;;;;;;12.00;10.70;;;;;;;9.73;83.50;97929.84;218522;1253;140125;-67
2023/03/31 22:45:11;;;;;;;11.30;10.00;;;;;;;9.70;83.86;97932.66;218353;1256;140102;-68
2023/03/31 22:50:15;;;;;;;15.90;9.70;;;;;;;9.69;83.64;97931.45;218213;1254;140653;-77
2023/03/31 22:55:19;;;;;;;17.00;8.70;;;;;;;9.68;83.71;97930.33;218630;1253;140792;-68
2023/03/31 23:00:24;;;;;;;12.90;9.80;;;;;;;9.66;83.81;97934.06;218198;1257;140242;-70
2023/03/31 23:05:29;;;;;;;12.80;9.20;;;;;;;9.64;83.81;97933.27;219349;1251;139908;-68
2023/03/31 23:10:35;;;;;;;12.70;8.00;;;;;;;9.63;84.13;97931.52;219352;1254;140069;-68
2023/03/31 23:15:40;;;;;;;11.20;8.40;;;;;;;9.62;83.94;97932.80;218590;1256;140507;-67
2023/03/31 23:20:45;;;;;;;10.80;8.50;;;;;;;9.60;84.12;97934.83;217848;1257;141190;-69
2023/03/31 23:25:50;;;;;;;9.20;8.30;;;;;;;9.59;84.07;97936.27;220302;1254;139516;-71
2023/03/31 23:30:56;;;;;;;18.00;9.60;;;;;;;9.59;84.15;97936.58;218789;1257;142513;-71
2023/03/31 23:36:03;;;;;;;9.70;7.30;;;;;;;9.57;84.11;97938.02;219023;1254;140463;-71
2023/03/31 23:41:09;;;;;;;12.20;7.70;;;;;;;9.58;84.40;97945.57;218837;1254;138978;-70
2023/03/31 23:46:14;;;;;;;14.20;9.90;;;;;;;9.60;84.26;97944.45;220047;1254;141664;-71
2023/03/31 23:51:19;;;;;;;12.90;9.80;;;;;;;9.58;84.19;97940.67;220049;1254;141045;-70